Time;durP1;ratioP1;P1;durP2;ratioP2;P2;SDS_P1;SDS_P2;PMS_P1;PMS_P2;Temp;Humidity;BMP_temperature;BMP_pressure;BME280_temperature;BME280_humidity;BME280_pressure;Samples;Min_cycle;Max_cycle;Signal;HPM_P1;HPM_P2
2021/03/05 00:00:49;;;;;;;1.80;1.57;;;23.00;49.00;;;;;;5032788;28;20215;-69
2021/03/05 00:03:15;;;;;;;1.70;1.53;;;22.90;48.90;;;;;;5032849;28;20237;-69
2021/03/05 00:05:42;;;;;;;2.33;1.77;;;22.90;48.90;;;;;;5033087;28;20168;-68
2021/03/05 00:08:10;;;;;;;1.90;1.70;;;22.90;48.90;;;;;;5033013;28;20560;-68
2021/03/05 00:10:39;;;;;;;2.80;1.60;;;22.90;48.90;;;;;;5031520;28;20462;-69
2021/03/05 00:13:05;;;;;;;1.93;1.50;;;22.90;48.90;;;;;;5032761;28;20815;-69
2021/03/05 00:15:39;;;;;;;2.70;2.10;;;22.90;48.90;;;;;;5032789;28;20489;-70
2021/03/05 00:18:06;;;;;;;1.43;1.33;;;22.90;48.90;;;;;;5032649;28;20453;-70
2021/03/05 00:20:34;;;;;;;1.70;1.60;;;22.90;48.90;;;;;;5032531;28;20485;-70
2021/03/05 00:23:00;;;;;;;1.50;1.23;;;22.90;48.90;;;;;;5032947;28;20817;-69
2021/03/05 00:25:26;;;;;;;2.23;1.77;;;22.90;48.90;;;;;;5034811;28;20407;-70
2021/03/05 00:27:52;;;;;;;1.97;1.40;;;22.90;48.90;;;;;;5036248;28;20437;-69
2021/03/05 00:30:18;;;;;;;1.53;1.40;;;22.90;48.90;;;;;;5036299;28;20402;-69
2021/03/05 00:32:44;;;;;;;1.90;1.70;;;22.90;48.90;;;;;;5035723;28;20179;-68
2021/03/05 00:35:13;;;;;;;1.73;1.40;;;22.90;49.00;;;;;;5034186;28;20403;-70
2021/03/05 00:37:39;;;;;;;1.57;1.30;;;22.90;48.90;;;;;;5034540;28;20278;-69
2021/03/05 00:40:08;;;;;;;1.83;1.63;;;22.90;48.90;;;;;;5034931;28;20806;-69
2021/03/05 00:42:33;;;;;;;1.77;1.50;;;22.90;48.90;;;;;;5036804;28;20403;-69
2021/03/05 00:44:59;;;;;;;2.10;1.50;;;22.90;48.90;;;;;;5036050;28;20404;-69
2021/03/05 00:47:25;;;;;;;3.50;1.50;;;22.90;49.00;;;;;;5035943;28;20201;-67
2021/03/05 00:49:51;;;;;;;2.00;1.70;;;22.90;49.00;;;;;;5035238;28;20776;-69
2021/03/05 00:52:16;;;;;;;1.40;1.30;;;22.90;49.00;;;;;;5035278;28;20179;-69
2021/03/05 00:54:42;;;;;;;1.77;1.40;;;22.90;49.00;;;;;;5035872;28;20647;-69
2021/03/05 00:57:07;;;;;;;1.63;1.40;;;22.90;49.00;;;;;;5035765;28;20168;-69
2021/03/05 00:59:33;;;;;;;2.73;1.43;;;22.80;48.90;;;;;;5035770;28;20199;-69
2021/03/05 01:01:59;;;;;;;1.93;1.47;;;22.90;49.00;;;;;;5035781;28;20168;-69
2021/03/05 01:04:25;;;;;;;2.03;1.50;;;22.80;48.90;;;;;;5035754;28;20585;-70
2021/03/05 01:06:51;;;;;;;1.63;1.30;;;22.80;48.90;;;;;;5035699;28;20406;-69
2021/03/05 01:09:17;;;;;;;1.73;1.63;;;22.80;49.00;;;;;;5035826;28;20666;-69
2021/03/05 01:11:42;;;;;;;1.90;1.60;;;22.80;49.00;;;;;;5035868;28;20498;-69
2021/03/05 01:14:08;;;;;;;1.60;1.50;;;22.80;49.00;;;;;;5034255;28;20203;-70
2021/03/05 01:16:34;;;;;;;1.60;1.37;;;22.80;49.00;;;;;;5035552;28;20263;-69
2021/03/05 01:18:59;;;;;;;2.00;1.50;;;22.80;49.00;;;;;;5035225;28;20681;-69
2021/03/05 01:21:25;;;;;;;1.97;1.47;;;22.80;49.00;;;;;;5035345;28;20167;-69
2021/03/05 01:23:51;;;;;;;1.40;1.20;;;22.80;49.00;;;;;;5035624;28;20186;-70
2021/03/05 01:26:17;;;;;;;1.70;1.50;;;22.80;49.00;;;;;;5035222;28;20175;-69
2021/03/05 01:28:45;;;;;;;1.90;1.47;;;22.80;49.00;;;;;;5033876;28;20290;-68
2021/03/05 01:31:12;;;;;;;1.87;1.60;;;22.80;49.00;;;;;;5035181;28;20170;-69
2021/03/05 01:33:38;;;;;;;1.73;1.30;;;22.80;49.00;;;;;;5035140;28;20410;-69
2021/03/05 01:36:04;;;;;;;1.30;1.20;;;22.80;49.00;;;;;;5034092;28;20417;-69
2021/03/05 01:38:29;;;;;;;1.77;1.50;;;22.80;49.00;;;;;;5034858;28;20199;-69
2021/03/05 01:40:55;;;;;;;1.40;1.30;;;22.80;49.00;;;;;;5034979;28;20603;-67
2021/03/05 01:43:21;;;;;;;1.40;1.30;;;22.80;49.00;;;;;;5035000;28;20167;-70
2021/03/05 01:45:47;;;;;;;1.40;1.30;;;22.80;49.00;;;;;;5034959;28;20530;-70
2021/03/05 01:48:18;;;;;;;1.50;1.40;;;22.80;49.00;;;;;;5034867;28;20188;-69
2021/03/05 01:51:00;;;;;;;1.77;1.20;;;22.80;49.00;;;;;;5036388;28;20410;-69
2021/03/05 01:53:27;;;;;;;2.07;1.27;;;22.80;49.00;;;;;;5034816;28;20417;-69
2021/03/05 01:55:53;;;;;;;1.80;1.30;;;22.80;49.00;;;;;;5035244;28;20889;-69
2021/03/05 01:58:20;;;;;;;1.70;1.43;;;22.80;49.00;;;;;;5034596;28;20521;-69
2021/03/05 02:00:51;;;;;;;1.73;1.50;;;22.80;49.10;;;;;;5034591;28;20511;-70
2021/03/05 02:03:17;;;;;;;2.63;1.40;;;22.80;49.00;;;;;;5034906;28;20481;-70
2021/03/05 02:05:43;;;;;;;2.43;1.40;;;22.80;49.00;;;;;;5034594;28;20848;-69
2021/03/05 02:08:11;;;;;;;2.40;2.20;;;22.80;49.00;;;;;;5034471;28;20232;-67
2021/03/05 02:10:37;;;;;;;1.27;1.17;;;22.80;49.10;;;;;;5034448;28;20497;-69
2021/03/05 02:13:04;;;;;;;2.03;1.40;;;22.80;49.10;;;;;;5034471;28;20445;-68
2021/03/05 02:15:32;;;;;;;1.33;1.20;;;22.80;49.10;;;;;;5034396;28;20175;-70
2021/03/05 02:18:14;;;;;;;1.37;1.20;;;22.80;49.10;;;;;;5034248;28;20479;-68
2021/03/05 02:20:52;;;;;;;1.73;1.20;;;22.80;49.10;;;;;;5034233;28;20521;-70
2021/03/05 02:23:31;;;;;;;1.70;1.60;;;22.80;49.10;;;;;;5034205;28;20441;-69
2021/03/05 02:26:27;;;;;;;3.50;1.70;;;22.80;49.10;;;;;;5032959;28;20406;-70
2021/03/05 02:29:07;;;;;;;1.50;1.30;;;22.80;49.20;;;;;;5034051;28;20425;-69
2021/03/05 02:31:42;;;;;;;1.50;1.03;;;22.70;49.10;;;;;;5034823;28;20410;-70
2021/03/05 02:34:33;;;;;;;1.73;1.40;;;22.70;49.20;;;;;;5033941;28;20394;-70
2021/03/05 02:37:06;;;;;;;2.10;1.40;;;22.80;49.20;;;;;;5034037;28;20421;-69
2021/03/05 02:39:44;;;;;;;1.80;1.60;;;22.80;49.20;;;;;;5033856;28;20537;-70
2021/03/05 02:42:20;;;;;;;1.30;1.20;;;22.80;49.10;;;;;;5033804;28;20456;-69
2021/03/05 02:45:11;;;;;;;1.40;1.30;;;22.80;49.10;;;;;;5034230;28;20406;-69
2021/03/05 02:47:40;;;;;;;1.70;1.30;;;22.80;49.10;;;;;;5033367;28;20430;-69
2021/03/05 02:50:07;;;;;;;1.40;1.30;;;22.80;49.00;;;;;;5034502;28;20411;-70
2021/03/05 02:52:35;;;;;;;2.17;1.33;;;22.80;49.00;;;;;;5033534;28;20410;-69
2021/03/05 02:55:06;;;;;;;2.10;1.30;;;22.80;49.00;;;;;;5034044;28;20418;-69
2021/03/05 02:57:38;;;;;;;2.10;1.17;;;22.90;49.10;;;;;;5033440;28;20476;-69
2021/03/05 03:00:05;;;;;;;1.33;1.23;;;22.90;49.10;;;;;;5033968;28;20466;-69
2021/03/05 03:02:33;;;;;;;1.20;1.10;;;22.90;49.00;;;;;;5033440;28;20407;-69
2021/03/05 03:04:59;;;;;;;1.43;1.33;;;22.90;49.00;;;;;;5033385;28;20406;-69
2021/03/05 03:07:25;;;;;;;2.27;1.40;;;22.90;49.00;;;;;;5033476;28;20399;-69
2021/03/05 03:09:51;;;;;;;2.47;1.70;;;22.90;49.00;;;;;;5033311;28;20402;-69
2021/03/05 03:12:18;;;;;;;1.10;1.00;;;22.90;49.00;;;;;;5033280;28;20186;-69
2021/03/05 03:14:45;;;;;;;1.30;1.20;;;22.90;49.00;;;;;;5033259;28;20803;-69
2021/03/05 03:17:12;;;;;;;1.47;1.30;;;22.90;49.00;;;;;;5033076;28;20406;-69
2021/03/05 03:19:40;;;;;;;1.67;1.17;;;22.90;49.00;;;;;;5033115;28;20461;-69
2021/03/05 03:22:06;;;;;;;1.63;1.20;;;22.90;48.90;;;;;;5033428;28;20445;-69
2021/03/05 03:24:32;;;;;;;1.50;1.20;;;22.90;49.00;;;;;;5033304;28;20446;-70
2021/03/05 03:26:59;;;;;;;2.33;1.70;;;22.90;49.00;;;;;;5033178;28;20704;-69
2021/03/05 03:29:26;;;;;;;1.10;1.00;;;22.90;49.00;;;;;;5033028;28;20430;-69
2021/03/05 03:31:52;;;;;;;1.30;1.07;;;22.90;49.00;;;;;;5033048;28;21007;-69
2021/03/05 03:34:19;;;;;;;1.17;1.07;;;22.90;49.00;;;;;;5033241;28;20414;-69
2021/03/05 03:36:46;;;;;;;1.30;1.20;;;22.90;48.90;;;;;;5032821;28;20757;-69
2021/03/05 03:39:12;;;;;;;1.40;1.00;;;22.90;48.90;;;;;;5031687;28;20450;-69
2021/03/05 03:41:39;;;;;;;1.70;1.23;;;22.90;49.00;;;;;;5032913;28;20411;-69
2021/03/05 03:44:08;;;;;;;1.40;1.20;;;22.90;49.00;;;;;;5033193;28;20171;-69
2021/03/05 03:46:38;;;;;;;2.50;1.50;;;22.90;48.90;;;;;;5033063;28;20414;-69
2021/03/05 03:49:10;;;;;;;1.50;1.30;;;22.90;49.00;;;;;;5033198;28;20797;-69
2021/03/05 03:51:41;;;;;;;1.50;1.27;;;22.90;49.00;;;;;;5033142;28;20399;-69
2021/03/05 03:54:12;;;;;;;1.20;1.10;;;22.90;49.00;;;;;;5033133;28;20399;-69
2021/03/05 03:56:38;;;;;;;1.33;1.20;;;22.90;49.50;;;;;;5032989;28;20401;-69
2021/03/05 03:59:05;;;;;;;1.13;1.03;;;22.90;49.00;;;;;;5031492;28;20837;-69
2021/03/05 04:01:31;;;;;;;1.40;1.20;;;22.90;49.00;;;;;;5036761;28;20882;-70
2021/03/05 04:04:00;;;;;;;1.67;1.43;;;22.90;49.00;;;;;;5037329;28;20525;-69
2021/03/05 04:06:27;;;;;;;1.70;1.27;;;22.90;49.00;;;;;;5036571;28;20402;-69
2021/03/05 04:08:54;;;;;;;1.90;1.33;;;22.90;49.00;;;;;;5036588;28;20849;-70
2021/03/05 04:11:21;;;;;;;1.27;1.07;;;22.90;49.00;;;;;;5035344;28;20805;-70
2021/03/05 04:13:48;;;;;;;1.73;1.27;;;22.80;49.00;;;;;;5036543;28;20413;-70
2021/03/05 04:16:13;;;;;;;1.27;1.00;;;22.80;49.00;;;;;;5036512;28;20398;-69
2021/03/05 04:18:40;;;;;;;1.30;1.17;;;22.80;49.10;;;;;;5036304;28;20426;-69
2021/03/05 04:21:09;;;;;;;1.20;0.93;;;22.80;49.10;;;;;;5036375;28;20207;-69
2021/03/05 04:23:35;;;;;;;1.67;1.47;;;22.80;49.10;;;;;;5036367;28;20410;-70
2021/03/05 04:26:02;;;;;;;2.40;1.30;;;22.80;49.20;;;;;;5036322;28;20416;-69
2021/03/05 04:28:29;;;;;;;1.53;1.43;;;22.70;49.10;;;;;;5036229;28;20474;-69
2021/03/05 04:30:54;;;;;;;1.57;1.30;;;22.70;49.20;;;;;;5035038;28;20858;-69
2021/03/05 04:33:20;;;;;;;1.33;1.20;;;22.70;49.20;;;;;;5036301;28;20501;-70
2021/03/05 04:35:46;;;;;;;1.40;1.10;;;22.70;49.20;;;;;;5036217;28;20247;-69
2021/03/05 04:38:11;;;;;;;1.50;1.20;;;22.70;49.30;;;;;;5034818;28;20314;-69
2021/03/05 04:40:37;;;;;;;1.20;1.10;;;22.60;49.20;;;;;;5034767;28;20214;-68
2021/03/05 04:43:03;;;;;;;1.30;1.00;;;22.60;49.30;;;;;;5036055;28;20172;-69
2021/03/05 04:45:29;;;;;;;1.33;1.00;;;22.60;49.30;;;;;;5035984;28;20203;-69
2021/03/05 04:47:54;;;;;;;1.10;0.93;;;22.60;49.30;;;;;;5035892;28;20866;-70
2021/03/05 04:50:20;;;;;;;1.23;1.00;;;22.60;49.90;;;;;;5035218;28;20179;-69
2021/03/05 04:52:45;;;;;;;1.10;1.00;;;22.60;49.40;;;;;;5035846;28;20183;-69
2021/03/05 04:55:12;;;;;;;1.87;1.40;;;22.60;49.40;;;;;;5035799;28;20180;-70
2021/03/05 04:57:37;;;;;;;1.50;1.10;;;22.50;49.30;;;;;;5035867;28;20198;-70
2021/03/05 05:00:05;;;;;;;1.20;1.10;;;22.50;49.40;;;;;;5035652;28;20454;-70
2021/03/05 05:02:31;;;;;;;1.87;1.00;;;22.50;49.40;;;;;;5035655;28;20172;-69
2021/03/05 05:04:56;;;;;;;1.70;1.50;;;22.50;49.40;;;;;;5035593;28;20425;-70
2021/03/05 05:07:22;;;;;;;4.83;1.67;;;22.50;49.30;;;;;;5035457;28;20218;-70
2021/03/05 05:09:48;;;;;;;8.83;2.20;;;22.50;49.30;;;;;;5035546;28;20596;-70
2021/03/05 05:12:13;;;;;;;2.80;2.30;;;22.50;49.20;;;;;;5034460;28;20254;-70
2021/03/05 05:14:39;;;;;;;2.87;2.20;;;22.40;48.70;;;;;;5035745;28;20541;-69
2021/03/05 05:17:05;;;;;;;3.40;1.80;;;22.50;48.60;;;;;;5035726;28;20640;-69
2021/03/05 05:19:30;;;;;;;3.33;1.60;;;22.40;48.50;;;;;;5035203;28;20682;-69
2021/03/05 05:21:56;;;;;;;1.73;1.20;;;22.40;48.60;;;;;;5035293;28;20164;-70
2021/03/05 05:24:22;;;;;;;1.87;1.40;;;22.40;48.70;;;;;;5035314;28;20251;-70
2021/03/05 05:26:48;;;;;;;2.50;1.13;;;22.40;48.80;;;;;;5035223;28;20489;-70
2021/03/05 05:29:13;;;;;;;1.47;1.20;;;22.40;48.90;;;;;;5035075;28;20667;-69
2021/03/05 05:31:39;;;;;;;1.40;1.20;;;22.40;49.00;;;;;;5035163;28;20184;-69
2021/03/05 05:34:05;;;;;;;1.30;1.20;;;22.40;49.10;;;;;;5035123;28;20176;-69
2021/03/05 05:36:30;;;;;;;1.50;1.10;;;22.40;49.10;;;;;;5035057;28;20255;-69
2021/03/05 05:38:56;;;;;;;1.57;1.10;;;22.40;49.20;;;;;;5034748;28;20686;-69
2021/03/05 05:41:24;;;;;;;1.43;1.00;;;22.30;49.10;;;;;;5034920;28;20168;-69
2021/03/05 05:43:51;;;;;;;2.53;1.30;;;22.40;49.20;;;;;;5035102;28;20176;-69
2021/03/05 05:46:19;;;;;;;1.80;1.20;;;22.40;49.20;;;;;;5034779;28;20403;-69
2021/03/05 05:48:47;;;;;;;2.30;1.00;;;22.40;49.20;;;;;;5034997;28;20426;-69
2021/03/05 05:51:24;;;;;;;1.40;1.23;;;22.40;49.20;;;;;;5034917;28;20438;-69
2021/03/05 05:53:51;;;;;;;3.60;3.30;;;22.40;49.20;;;;;;5034790;28;20760;-69
2021/03/05 05:56:19;;;;;;;1.43;1.33;;;22.40;49.20;;;;;;5034728;28;20905;-69
2021/03/05 05:58:46;;;;;;;1.73;1.10;;;22.40;49.20;;;;;;5034475;28;20465;-69
2021/03/05 06:01:12;;;;;;;1.63;1.10;;;22.40;49.20;;;;;;5034884;28;20421;-70
2021/03/05 06:03:39;;;;;;;1.40;0.90;;;22.40;49.20;;;;;;5034536;28;20407;-69
2021/03/05 06:06:05;;;;;;;1.50;1.13;;;22.40;49.10;;;;;;5034732;28;20461;-69
2021/03/05 06:08:31;;;;;;;1.40;1.00;;;22.40;49.10;;;;;;5034401;28;20426;-69
2021/03/05 06:10:57;;;;;;;1.50;1.20;;;22.40;49.00;;;;;;5033075;28;20426;-69
2021/03/05 06:13:27;;;;;;;3.03;1.17;;;22.40;49.00;;;;;;5034238;28;20415;-69
2021/03/05 06:16:15;;;;;;;1.77;1.20;;;22.40;48.90;;;;;;5034228;28;20202;-69
2021/03/05 06:18:42;;;;;;;1.80;1.40;;;22.50;49.00;;;;;;5034195;28;20426;-70
2021/03/05 06:21:08;;;;;;;2.37;1.20;;;22.40;49.00;;;;;;5034174;28;20421;-68
2021/03/05 06:23:35;;;;;;;1.47;1.03;;;22.40;49.00;;;;;;5033753;28;20482;-69
2021/03/05 06:26:02;;;;;;;1.57;1.20;;;22.40;49.00;;;;;;5034118;28;20164;-70
2021/03/05 06:28:28;;;;;;;1.43;1.10;;;22.40;49.00;;;;;;5033984;28;20418;-69
2021/03/05 06:30:55;;;;;;;2.87;1.13;;;22.40;49.00;;;;;;5033950;28;20405;-69
2021/03/05 06:33:28;;;;;;;2.80;1.30;;;22.40;49.00;;;;;;5033984;28;20935;-70
2021/03/05 06:35:55;;;;;;;1.80;1.27;;;22.50;49.10;;;;;;5033948;28;20390;-70
2021/03/05 06:38:42;;;;;;;2.60;1.17;;;22.40;49.00;;;;;;5033709;28;20449;-69
2021/03/05 06:41:22;;;;;;;1.87;1.20;;;22.50;49.00;;;;;;5033752;28;20395;-68
2021/03/05 06:43:57;;;;;;;3.50;1.70;;;22.50;49.10;;;;;;5033786;28;20915;-69
2021/03/05 06:46:28;;;;;;;1.80;1.30;;;22.40;49.00;;;;;;5032512;28;20452;-69
2021/03/05 06:48:54;;;;;;;3.60;1.30;;;22.40;49.00;;;;;;5033674;28;20422;-69
2021/03/05 06:51:21;;;;;;;1.77;1.03;;;22.40;49.00;;;;;;5033612;28;20893;-69
2021/03/05 06:53:47;;;;;;;3.10;1.23;;;22.40;49.00;;;;;;5032342;28;20415;-69
2021/03/05 06:56:30;;;;;;;1.93;1.13;;;22.40;49.00;;;;;;5032278;28;20414;-69
2021/03/05 06:59:13;;;;;;;1.73;1.30;;;22.50;49.10;;;;;;5033333;28;20897;-69
2021/03/05 07:01:56;;;;;;;2.33;1.30;;;22.60;49.10;;;;;;5032269;28;20467;-69
2021/03/05 07:04:30;;;;;;;3.40;1.33;;;22.60;49.00;;;;;;5033676;28;20826;-70
2021/03/05 07:07:04;;;;;;;1.60;1.00;;;22.60;49.00;;;;;;5032062;28;20403;-69
2021/03/05 07:09:38;;;;;;;2.17;0.87;;;22.60;49.00;;;;;;5033238;28;20477;-69
2021/03/05 07:12:25;;;;;;;1.33;1.00;;;22.70;49.60;;;;;;5033312;28;20393;-68
2021/03/05 07:14:59;;;;;;;2.90;1.30;;;22.70;49.00;;;;;;5033543;28;20421;-69
2021/03/05 07:17:26;;;;;;;3.07;0.87;;;22.70;49.00;;;;;;5033070;28;20413;-69
2021/03/05 07:19:52;;;;;;;3.00;1.10;;;22.70;49.00;;;;;;5031954;28;20488;-69
2021/03/05 07:22:18;;;;;;;1.10;1.00;;;22.70;48.90;;;;;;5033239;28;20893;-69
2021/03/05 07:24:49;;;;;;;1.60;1.30;;;22.70;48.90;;;;;;5033071;28;20205;-69
2021/03/05 07:27:15;;;;;;;1.93;1.20;;;22.80;48.90;;;;;;5033050;28;20390;-69
2021/03/05 07:29:44;;;;;;;2.00;1.20;;;22.80;48.90;;;;;;5033088;28;20788;-69
2021/03/05 07:32:14;;;;;;;2.33;1.17;;;22.80;48.90;;;;;;5033332;28;20416;-68
2021/03/05 07:34:55;;;;;;;2.37;1.70;;;22.80;48.80;;;;;;5032315;28;20757;-69
2021/03/05 07:37:25;;;;;;;2.03;1.33;;;22.80;49.40;;;;;;5031593;28;20801;-70
2021/03/05 07:39:54;;;;;;;1.80;1.40;;;22.70;48.80;;;;;;5032937;28;20829;-69
2021/03/05 07:42:21;;;;;;;1.80;1.00;;;22.80;49.00;;;;;;5033192;28;20773;-70
2021/03/05 07:44:47;;;;;;;3.37;1.70;;;22.80;48.90;;;;;;5032862;28;20413;-69
2021/03/05 07:47:15;;;;;;;1.97;1.00;;;22.80;49.50;;;;;;5032815;28;20411;-69
2021/03/05 07:49:42;;;;;;;1.43;1.20;;;22.80;48.90;;;;;;5034401;28;20414;-69
2021/03/05 07:52:08;;;;;;;1.57;1.00;;;22.80;48.90;;;;;;5032845;28;20476;-67
2021/03/05 07:54:40;;;;;;;3.60;1.20;;;22.80;48.90;;;;;;5032833;28;20422;-70
2021/03/05 07:57:06;;;;;;;3.33;1.30;;;22.90;48.90;;;;;;5032821;28;20429;-69
2021/03/05 07:59:41;;;;;;;1.73;1.10;;;22.80;48.80;;;;;;5032686;28;20829;-69
2021/03/05 08:02:11;;;;;;;1.33;0.97;;;22.90;48.90;;;;;;5031452;28;20422;-69
2021/03/05 08:07:22;;;;;;;1.97;1.07;;;22.90;48.90;;;;;;5033100;28;20464;-69
2021/03/05 08:09:48;;;;;;;1.20;1.00;;;22.90;48.90;;;;;;5033059;28;20865;-69
2021/03/05 08:12:28;;;;;;;1.30;1.00;;;22.80;48.80;;;;;;5032731;28;20442;-69
2021/03/05 08:15:06;;;;;;;1.90;1.00;;;22.90;48.90;;;;;;5033160;28;20471;-68
2021/03/05 08:17:33;;;;;;;2.10;1.23;;;22.90;48.90;;;;;;5032650;28;20952;-69
2021/03/05 08:20:00;;;;;;;1.53;1.20;;;22.90;49.50;;;;;;5032529;28;20515;-69
2021/03/05 08:22:27;;;;;;;1.47;1.00;;;22.90;48.90;;;;;;5032678;28;20406;-69
2021/03/05 08:25:12;;;;;;;1.93;1.10;;;22.90;48.90;;;;;;5031374;28;20431;-69
2021/03/05 08:27:38;;;;;;;2.63;0.90;;;22.90;48.90;;;;;;5032663;28;20461;-69
2021/03/05 08:30:08;;;;;;;1.60;1.10;;;22.90;48.90;;;;;;5032512;28;20458;-68
2021/03/05 08:32:34;;;;;;;1.50;1.37;;;22.90;48.90;;;;;;5032974;28;20176;-68
2021/03/05 08:35:03;;;;;;;1.97;1.23;;;22.90;48.80;;;;;;5031171;28;20960;-67
2021/03/05 08:37:33;;;;;;;3.43;2.77;;;22.80;48.70;;;;;;5015002;28;20231;-69
2021/03/05 08:40:11;;;;;;;3.50;3.07;;;22.80;48.60;;;;;;5032332;28;20450;-69
2021/03/05 08:42:47;;;;;;;3.63;2.70;;;22.80;48.50;;;;;;5032335;28;20402;-69
2021/03/05 08:45:14;;;;;;;4.23;3.43;;;22.80;48.30;;;;;;5032920;28;20406;-69
2021/03/05 08:47:42;;;;;;;2.87;1.87;;;22.80;48.30;;;;;;5035841;28;20956;-69
2021/03/05 08:50:09;;;;;;;3.40;2.67;;;22.80;48.50;;;;;;5035921;28;20464;-69
2021/03/05 08:52:35;;;;;;;2.33;2.03;;;22.80;48.30;;;;;;5035847;28;20497;-68
2021/03/05 08:55:04;;;;;;;4.70;3.37;;;22.70;48.00;;;;;;5036116;28;20918;-68
2021/03/05 08:57:54;;;;;;;3.17;2.87;;;22.70;47.80;;;;;;5035951;28;20462;-67
2021/03/05 09:00:22;;;;;;;3.90;2.50;;;22.70;47.70;;;;;;5035661;28;20438;-69
2021/03/05 09:02:50;;;;;;;4.03;2.67;;;22.70;47.90;;;;;;5034351;28;20922;-69
2021/03/05 09:05:31;;;;;;;2.50;2.30;;;22.70;48.00;;;;;;5035491;28;20415;-70
2021/03/05 09:07:58;;;;;;;2.53;2.33;;;22.70;48.10;;;;;;5035470;28;20465;-69
2021/03/05 09:10:39;;;;;;;3.30;2.20;;;22.70;48.10;;;;;;5035440;28;20418;-68
2021/03/05 09:13:05;;;;;;;2.50;2.30;;;22.70;48.10;;;;;;5035426;28;20391;-68
2021/03/05 09:15:40;;;;;;;2.80;2.03;;;22.70;48.20;;;;;;5035410;28;20407;-69
2021/03/05 09:18:06;;;;;;;3.70;2.30;;;22.70;48.10;;;;;;5035248;28;20437;-68
2021/03/05 09:20:45;;;;;;;2.70;2.00;;;22.70;48.10;;;;;;5036134;28;20847;-68
2021/03/05 09:23:18;;;;;;;2.60;2.10;;;22.70;48.10;;;;;;5035661;28;20418;-67
2021/03/05 09:25:55;;;;;;;2.23;1.90;;;22.70;48.10;;;;;;5035167;28;20406;-68
2021/03/05 09:28:34;;;;;;;2.80;1.90;;;22.70;48.10;;;;;;5035335;28;20417;-68
2021/03/05 09:30:59;;;;;;;1.57;1.20;;;22.70;48.00;;;;;;5034004;28;20398;-66
2021/03/05 09:33:31;;;;;;;1.80;1.40;;;22.70;48.10;;;;;;5035085;28;20410;-68
2021/03/05 09:36:11;;;;;;;2.20;1.43;;;22.60;48.00;;;;;;5035189;28;20263;-68
2021/03/05 09:38:39;;;;;;;1.77;1.67;;;22.60;47.90;;;;;;5033587;28;20461;-68
2021/03/05 09:41:22;;;;;;;1.80;1.30;;;22.60;47.90;;;;;;5034868;28;20450;-68
2021/03/05 09:44:09;;;;;;;1.50;1.40;;;22.60;47.90;;;;;;5034925;28;20399;-67
2021/03/05 09:46:36;;;;;;;2.00;1.80;;;22.60;47.90;;;;;;5034878;28;20759;-68
2021/03/05 09:49:25;;;;;;;1.87;1.70;;;22.60;47.90;;;;;;5034720;28;20437;-68
2021/03/05 09:51:51;;;;;;;2.63;1.87;;;22.60;47.90;;;;;;5034772;28;20383;-67
2021/03/05 09:54:19;;;;;;;2.07;1.50;;;22.60;47.90;;;;;;5034463;28;20407;-67
2021/03/05 09:56:46;;;;;;;2.70;1.93;;;22.60;47.90;;;;;;5034340;28;20406;-68
2021/03/05 09:59:12;;;;;;;2.27;1.83;;;22.60;47.90;;;;;;5034761;28;20454;-68
2021/03/05 10:01:42;;;;;;;1.80;1.50;;;22.60;47.90;;;;;;5034519;28;20541;-68
2021/03/05 10:04:10;;;;;;;2.00;1.80;;;22.60;47.90;;;;;;5033140;28;20525;-68
2021/03/05 10:06:36;;;;;;;2.53;2.33;;;22.60;47.90;;;;;;5034488;28;20406;-68
2021/03/05 10:09:12;;;;;;;2.13;1.53;;;22.50;47.80;;;;;;5033147;28;20438;-68
2021/03/05 10:11:44;;;;;;;2.07;1.37;;;22.60;47.80;;;;;;5034372;28;20168;-68
2021/03/05 10:14:36;;;;;;;1.67;1.33;;;22.60;47.80;;;;;;5034649;28;20387;-68
2021/03/05 10:17:17;;;;;;;2.10;1.50;;;22.60;48.00;;;;;;5033078;28;20399;-68
2021/03/05 10:19:44;;;;;;;2.30;1.57;;;22.70;48.10;;;;;;5034624;28;20596;-67
2021/03/05 10:22:16;;;;;;;2.90;1.80;;;22.70;48.00;;;;;;5034254;28;20399;-68
2021/03/05 10:24:41;;;;;;;2.30;1.40;;;22.70;48.00;;;;;;5034190;28;20391;-68
2021/03/05 10:27:19;;;;;;;1.70;1.37;;;22.70;47.80;;;;;;5034306;28;20421;-68
2021/03/05 10:29:57;;;;;;;3.40;1.70;;;22.80;47.80;;;;;;5034091;28;20619;-69
2021/03/05 10:32:33;;;;;;;3.73;2.47;;;22.80;47.70;;;;;;5034248;28;20397;-68
2021/03/05 10:35:01;;;;;;;1.63;1.33;;;22.80;47.70;;;;;;5033978;28;20970;-69
2021/03/05 10:37:27;;;;;;;3.13;1.37;;;22.80;47.60;;;;;;5033866;28;20778;-67
2021/03/05 10:39:54;;;;;;;1.70;1.20;;;22.80;47.60;;;;;;5033785;28;20521;-69
2021/03/05 10:42:23;;;;;;;3.53;1.60;;;22.80;47.50;;;;;;5033804;28;20950;-68
2021/03/05 10:44:49;;;;;;;1.80;1.30;;;22.90;47.50;;;;;;5033988;28;20406;-68
2021/03/05 10:47:17;;;;;;;1.87;1.07;;;22.90;47.50;;;;;;5032393;28;20418;-68
2021/03/05 10:49:44;;;;;;;2.20;1.20;;;22.90;47.40;;;;;;5033662;28;20845;-69
2021/03/05 10:52:11;;;;;;;2.20;1.30;;;22.90;47.40;;;;;;5033900;28;20449;-68
2021/03/05 10:54:37;;;;;;;2.40;1.57;;;22.90;47.30;;;;;;5033421;28;20407;-68
2021/03/05 10:57:03;;;;;;;1.73;1.30;;;22.90;47.20;;;;;;5033519;28;20917;-68
2021/03/05 10:59:29;;;;;;;2.40;1.37;;;23.00;47.20;;;;;;5032122;28;20888;-68
2021/03/05 11:01:55;;;;;;;1.50;1.40;;;23.00;47.20;;;;;;5033468;28;20497;-68
2021/03/05 11:04:25;;;;;;;1.80;1.37;;;23.00;47.70;;;;;;5032492;28;20195;-68
2021/03/05 11:06:51;;;;;;;1.97;1.57;;;23.00;47.10;;;;;;5032033;28;20195;-69
2021/03/05 11:09:21;;;;;;;2.30;1.37;;;23.00;47.10;;;;;;5033197;28;20434;-69
2021/03/05 11:11:46;;;;;;;1.93;1.70;;;23.00;47.00;;;;;;5032056;28;20426;-68
2021/03/05 11:14:13;;;;;;;3.30;1.60;;;23.00;47.00;;;;;;5033509;28;20411;-68
2021/03/05 11:16:39;;;;;;;2.33;2.13;;;23.10;47.00;;;;;;5033231;28;20314;-68
2021/03/05 11:19:05;;;;;;;5.20;1.70;;;23.00;47.00;;;;;;5033057;28;20458;-69
2021/03/05 11:21:34;;;;;;;2.00;1.60;;;23.00;47.00;;;;;;5033409;28;20175;-67
2021/03/05 11:24:00;;;;;;;2.23;1.57;;;23.10;47.10;;;;;;5031774;28;20488;-68
2021/03/05 11:26:26;;;;;;;2.83;1.47;;;23.00;47.00;;;;;;5032444;28;20910;-68
2021/03/05 11:28:52;;;;;;;2.87;2.00;;;23.10;47.10;;;;;;5033157;28;20472;-68
2021/03/05 11:31:18;;;;;;;3.53;1.60;;;23.10;47.10;;;;;;5033228;28;20972;-67
2021/03/05 11:33:44;;;;;;;5.23;2.40;;;23.10;47.00;;;;;;5033038;28;20413;-68
2021/03/05 11:36:15;;;;;;;2.47;2.10;;;23.10;47.00;;;;;;5032987;28;20905;-68
2021/03/05 11:38:43;;;;;;;4.87;2.20;;;23.10;47.10;;;;;;5032817;28;20213;-68
2021/03/05 11:41:09;;;;;;;3.27;1.97;;;23.10;47.10;;;;;;5033088;28;20457;-69
2021/03/05 11:43:55;;;;;;;4.10;2.13;;;23.10;47.10;;;;;;5032889;28;20413;-67
2021/03/05 11:46:22;;;;;;;3.23;2.00;;;23.10;47.10;;;;;;5032847;28;20761;-68
2021/03/05 11:48:49;;;;;;;3.53;2.17;;;23.10;47.10;;;;;;5032807;28;20426;-68
2021/03/05 11:51:16;;;;;;;4.17;1.97;;;23.10;47.10;;;;;;5032860;28;20425;-68
2021/03/05 11:53:42;;;;;;;3.03;1.93;;;23.10;47.20;;;;;;5032805;28;20514;-68
2021/03/05 11:56:08;;;;;;;3.57;1.83;;;23.10;47.30;;;;;;5032801;28;20452;-69
2021/03/05 11:58:34;;;;;;;5.17;2.27;;;23.10;47.30;;;;;;5032779;28;20635;-68
2021/03/05 12:01:00;;;;;;;3.40;1.50;;;23.10;47.30;;;;;;5032758;28;20842;-68
2021/03/05 12:03:26;;;;;;;3.00;2.23;;;23.10;47.30;;;;;;5032786;28;20417;-68
2021/03/05 12:05:51;;;;;;;2.23;2.03;;;23.00;47.20;;;;;;5032733;28;20410;-69
2021/03/05 12:08:17;;;;;;;2.97;2.03;;;23.10;47.40;;;;;;5032635;28;20196;-69
2021/03/05 12:10:43;;;;;;;2.30;1.87;;;23.00;47.30;;;;;;5032046;28;20254;-69
2021/03/05 12:13:10;;;;;;;2.77;1.87;;;23.00;47.30;;;;;;5032905;28;20258;-68
2021/03/05 12:15:36;;;;;;;1.67;1.57;;;23.00;47.40;;;;;;5032552;28;20647;-68
2021/03/05 12:18:02;;;;;;;2.50;2.10;;;23.00;47.40;;;;;;5032590;28;20436;-68
2021/03/05 12:20:28;;;;;;;3.33;2.17;;;23.00;47.50;;;;;;5033559;28;20544;-69
2021/03/05 12:22:53;;;;;;;2.33;1.53;;;23.00;47.50;;;;;;5036564;28;20175;-69
2021/03/05 12:25:19;;;;;;;3.03;1.97;;;23.00;47.50;;;;;;5036551;28;20460;-68
2021/03/05 12:27:44;;;;;;;1.80;1.50;;;23.00;47.50;;;;;;5036444;28;20223;-68
2021/03/05 12:30:11;;;;;;;2.13;1.60;;;23.00;47.50;;;;;;5036680;28;20175;-69
2021/03/05 12:32:36;;;;;;;4.77;1.57;;;23.00;47.60;;;;;;5036708;28;20534;-66
2021/03/05 12:35:02;;;;;;;2.77;1.50;;;23.00;47.60;;;;;;5036347;28;20504;-68
2021/03/05 12:37:28;;;;;;;4.40;1.77;;;23.00;47.60;;;;;;5034836;28;20247;-69
2021/03/05 12:39:53;;;;;;;2.00;1.60;;;23.00;47.60;;;;;;5036467;28;20489;-69
2021/03/05 12:42:19;;;;;;;2.00;1.40;;;23.00;47.60;;;;;;5036386;28;20167;-70
2021/03/05 12:44:45;;;;;;;2.40;1.60;;;23.00;47.60;;;;;;5036613;28;20168;-69
2021/03/05 12:47:10;;;;;;;3.30;2.00;;;23.00;47.70;;;;;;5036252;28;20193;-68
2021/03/05 12:49:36;;;;;;;2.37;1.20;;;23.00;47.60;;;;;;5036170;28;20690;-66
2021/03/05 12:52:02;;;;;;;2.83;1.57;;;23.00;47.70;;;;;;5035929;28;20708;-69
2021/03/05 12:54:27;;;;;;;2.50;1.60;;;23.00;47.70;;;;;;5035279;28;20654;-68
2021/03/05 12:56:53;;;;;;;4.40;2.50;;;23.00;47.70;;;;;;5035762;28;20414;-68
2021/03/05 12:59:19;;;;;;;3.93;2.10;;;22.90;47.70;;;;;;5035514;28;20211;-70